Time;durP1;ratioP1;P1;durP2;ratioP2;P2;SDS_P1;SDS_P2;PMS_P1;PMS_P2;Temp;Humidity;BMP_temperature;BMP_pressure;BME280_temperature;BME280_humidity;BME280_pressure;Samples;Min_cycle;Max_cycle;Signal;HPM_P1;HPM_P2
2024/01/19 00:00:10;;;;;;;10.30;6.07;;;;;;;-6.87;100.00;101367.81;5022062;28;20033;-77
2024/01/19 00:02:36;;;;;;;11.38;3.92;;;;;;;-6.97;100.00;101372.47;5038940;28;20045;-77
2024/01/19 00:05:03;;;;;;;5.30;4.13;;;;;;;-7.06;100.00;101378.00;5021908;28;20541;-77
2024/01/19 00:07:29;;;;;;;11.40;4.65;;;;;;;-7.17;100.00;101367.00;5038185;28;20040;-77
2024/01/19 00:09:55;;;;;;;10.75;5.13;;;;;;;-7.19;100.00;101371.44;5038252;28;20069;-77
2024/01/19 00:12:21;;;;;;;9.10;5.50;;;;;;;-7.14;100.00;101374.78;5021454;28;20115;-76
2024/01/19 00:14:46;;;;;;;12.43;6.47;;;;;;;-7.06;100.00;101378.00;5005533;28;20068;-76
2024/01/19 00:17:12;;;;;;;13.30;5.38;;;;;;;-6.71;100.00;101384.69;5021599;28;20095;-76
2024/01/19 00:19:38;;;;;;;12.73;7.53;;;;;;;-6.50;100.00;101392.75;5021561;28;20037;-77
2024/01/19 00:22:04;;;;;;;13.10;6.18;;;;;;;-6.39;100.00;101390.63;5021607;28;20033;-77
2024/01/19 00:24:29;;;;;;;11.43;7.32;;;;;;;-6.28;100.00;101393.72;5037883;28;20029;-76
2024/01/19 00:26:55;;;;;;;33.33;19.80;;;;;;;-5.98;100.00;101391.81;5021460;28;20033;-76
2024/01/19 00:29:21;;;;;;;12.18;8.38;;;;;;;-5.50;100.00;101397.03;5037243;28;20037;-77
2024/01/19 00:31:48;;;;;;;15.35;8.00;;;;;;;-5.17;100.00;101385.25;5004911;28;20029;-77
2024/01/19 00:34:14;;;;;;;18.83;10.13;;;;;;;-4.98;100.00;101395.88;5053943;28;20032;-77
2024/01/19 00:36:40;;;;;;;28.67;15.10;;;;;;;-5.06;100.00;101395.31;5037571;28;20158;-77
2024/01/19 00:39:06;;;;;;;13.85;9.27;;;;;;;-5.08;100.00;101399.75;5021187;28;20052;-77
2024/01/19 00:41:32;;;;;;;20.45;11.70;;;;;;;-5.00;100.00;101408.22;5021344;28;20033;-76
2024/01/19 00:43:57;;;;;;;14.63;8.52;;;;;;;-4.92;100.00;101413.13;5021099;28;20380;-76
2024/01/19 00:46:23;;;;;;;19.50;12.38;;;;;;;-5.03;100.00;101405.69;5037706;28;20025;-77
2024/01/19 00:48:49;;;;;;;11.93;8.00;;;;;;;-5.14;100.00;101402.63;5020835;28;20044;-76
2024/01/19 00:51:15;;;;;;;17.17;9.18;;;;;;;-5.26;100.00;101400.50;5037458;28;20041;-76
2024/01/19 00:53:41;;;;;;;15.60;9.82;;;;;;;-5.36;100.00;101400.84;5021088;28;20106;-76
2024/01/19 00:56:08;;;;;;;20.52;9.95;;;;;;;-5.46;100.00;101390.75;5036916;28;20475;-77
2024/01/19 00:58:35;;;;;;;14.93;8.05;;;;;;;-5.49;100.00;101391.72;5053523;28;20032;-76
2024/01/19 01:01:02;;;;;;;14.60;7.93;;;;;;;-5.57;100.00;101394.63;5037362;28;20036;-77
2024/01/19 01:03:29;;;;;;;15.27;8.25;;;;;;;-5.65;100.00;101394.06;5053814;28;20048;-76
2024/01/19 01:06:03;;;;;;;11.10;6.80;;;;;;;-5.80;100.00;101398.09;5020801;28;20418;-76
2024/01/19 01:08:29;;;;;;;10.13;6.20;;;;;;;-5.94;100.00;101397.78;5054022;28;20028;-77
2024/01/19 01:10:55;;;;;;;7.15;5.18;;;;;;;-6.22;100.00;101403.13;5020644;28;20113;-77
2024/01/19 01:13:23;;;;;;;7.88;5.20;;;;;;;-6.48;100.00;101406.63;5036805;28;20439;-76
2024/01/19 01:15:49;;;;;;;10.38;6.07;;;;;;;-6.67;100.00;101402.00;5037045;28;20112;-76
2024/01/19 01:18:16;;;;;;;8.25;5.25;;;;;;;-6.81;100.00;101405.97;5020606;28;20044;-77
2024/01/19 01:20:43;;;;;;;7.30;4.72;;;;;;;-6.94;100.00;101400.25;5020667;28;20032;-76
2024/01/19 01:23:09;;;;;;;9.48;6.07;;;;;;;-6.99;100.00;101395.19;5054241;28;20425;-76
2024/01/19 01:25:35;;;;;;;14.82;6.53;;;;;;;-6.96;100.00;101404.69;5020453;28;20601;-76
2024/01/19 01:28:01;;;;;;;8.57;5.93;;;;;;;-6.90;100.00;101399.28;5036746;28;20040;-76
2024/01/19 01:30:26;;;;;;;8.57;5.35;;;;;;;-6.90;100.00;101399.28;5020178;28;20025;-76
2024/01/19 01:32:52;;;;;;;13.40;6.75;;;;;;;-6.97;100.00;101396.00;5036499;28;20514;-76
2024/01/19 01:35:18;;;;;;;12.57;7.03;;;;;;;-6.98;100.00;101398.66;5036087;28;20111;-77
2024/01/19 01:37:43;;;;;;;8.02;5.85;;;;;;;-6.99;100.00;101397.78;5019712;28;20033;-78
2024/01/19 01:40:11;;;;;;;11.57;7.18;;;;;;;-7.07;100.00;101400.63;5036355;28;20119;-76
2024/01/19 01:42:38;;;;;;;12.13;6.82;;;;;;;-7.14;100.00;101393.91;5036592;28;20033;-77
2024/01/19 01:45:05;;;;;;;15.00;9.13;;;;;;;-7.07;100.00;101392.78;5052236;28;20108;-77
2024/01/19 01:47:31;;;;;;;8.40;5.28;;;;;;;-7.03;100.00;101392.72;5052827;28;20476;-76
2024/01/19 01:49:57;;;;;;;10.30;5.80;;;;;;;-7.05;100.00;101391.91;5036238;28;20025;-76
2024/01/19 01:52:23;;;;;;;5.55;4.07;;;;;;;-6.97;100.00;101397.75;5019727;28;20036;-76
2024/01/19 01:54:51;;;;;;;18.60;11.85;;;;;;;-6.93;100.00;101389.78;5019885;28;20021;-77
2024/01/19 01:57:19;;;;;;;14.55;8.88;;;;;;;-6.71;100.00;101389.94;5035845;28;20033;-77
2024/01/19 01:59:44;;;;;;;12.02;8.15;;;;;;;-6.65;100.00;101388.88;5036373;28;20071;-76
2024/01/19 02:02:10;;;;;;;10.48;7.03;;;;;;;-6.57;100.00;101393.84;5019835;28;20029;-76
2024/01/19 02:04:36;;;;;;;18.38;10.20;;;;;;;-6.55;100.00;101389.44;5019852;28;20029;-76
2024/01/19 02:07:02;;;;;;;18.83;10.13;;;;;;;-6.52;100.00;101381.47;5019884;28;20136;-76
2024/01/19 02:09:28;;;;;;;11.88;7.60;;;;;;;-6.54;100.00;101391.97;5019632;28;20094;-77
2024/01/19 02:11:54;;;;;;;7.45;6.13;;;;;;;-6.66;100.00;101382.78;5052021;28;20025;-77
2024/01/19 02:14:20;;;;;;;12.75;7.50;;;;;;;-6.90;100.00;101379.22;5036128;28;20047;-77
2024/01/19 02:16:45;;;;;;;9.32;5.07;;;;;;;-7.10;100.00;101376.38;5035989;28;20029;-77
2024/01/19 02:19:11;;;;;;;14.48;8.65;;;;;;;-7.33;100.00;101369.22;5019659;28;20120;-76
2024/01/19 02:21:37;;;;;;;23.20;12.95;;;;;;;-7.42;100.00;101375.59;5019509;28;20476;-76
2024/01/19 02:24:04;;;;;;;14.07;7.10;;;;;;;-7.26;100.00;101377.75;5019681;28;20473;-77
2024/01/19 02:26:31;;;;;;;12.93;6.65;;;;;;;-6.89;100.00;101369.59;5020184;28;20029;-77
2024/01/19 02:28:57;;;;;;;5.13;4.43;;;;;;;-6.64;100.00;101369.66;5019390;28;20033;-76
2024/01/19 02:31:23;;;;;;;17.92;9.20;;;;;;;-6.54;100.00;101365.81;5035673;28;20082;-76
2024/01/19 02:33:49;;;;;;;10.63;6.38;;;;;;;-6.60;100.00;101371.25;5019127;28;20127;-76
2024/01/19 02:36:15;;;;;;;23.88;12.05;;;;;;;-6.66;100.00;101366.25;5035872;28;20028;-77
2024/01/19 02:38:40;;;;;;;14.85;9.00;;;;;;;-6.68;100.00;101373.28;5019316;28;20155;-76
2024/01/19 02:41:06;;;;;;;14.63;8.80;;;;;;;-6.83;100.00;101360.69;5019387;28;20408;-76
2024/01/19 02:43:32;;;;;;;12.32;7.40;;;;;;;-6.87;100.00;101368.66;5035283;28;20032;-77
2024/01/19 02:45:57;;;;;;;9.05;6.18;;;;;;;-7.01;100.00;101364.75;5019263;28;20472;-76
2024/01/19 02:48:23;;;;;;;11.20;6.32;;;;;;;-7.27;100.00;101363.00;5019113;28;20120;-76
2024/01/19 02:50:49;;;;;;;16.02;9.80;;;;;;;-7.49;100.00;101366.22;5035425;28;20037;-77
2024/01/19 02:53:15;;;;;;;14.52;7.38;;;;;;;-7.58;100.00;101358.69;5019094;28;20025;-76
2024/01/19 02:55:40;;;;;;;13.55;7.57;;;;;;;-7.59;100.00;101363.06;5036415;28;20033;-76
2024/01/19 02:58:06;;;;;;;10.63;6.57;;;;;;;-7.63;100.00;101357.97;5023093;28;20060;-76
2024/01/19 03:00:31;;;;;;;13.65;8.68;;;;;;;-7.62;100.00;101362.25;5039617;28;20542;-76
2024/01/19 03:02:57;;;;;;;9.02;5.30;;;;;;;-7.48;100.00;101354.91;5023045;28;20029;-77
2024/01/19 03:05:23;;;;;;;13.15;7.85;;;;;;;-7.53;100.00;101351.56;5023007;28;20063;-76
2024/01/19 03:07:49;;;;;;;10.63;6.72;;;;;;;-7.65;100.00;101357.13;5022959;28;20048;-76
2024/01/19 03:10:15;;;;;;;11.60;8.20;;;;;;;-7.71;100.00;101350.34;5022709;28;20028;-76
2024/01/19 03:12:40;;;;;;;21.08;10.40;;;;;;;-7.70;100.00;101343.38;5022629;28;20029;-77
2024/01/19 03:15:06;;;;;;;12.02;7.00;;;;;;;-7.60;100.00;101345.66;5022659;28;20043;-76
2024/01/19 03:17:33;;;;;;;13.23;7.20;;;;;;;-7.38;100.00;101345.00;5055491;28;20170;-76
2024/01/19 03:20:02;;;;;;;9.02;6.07;;;;;;;-7.30;100.00;101353.47;5039352;28;20057;-76
2024/01/19 03:22:28;;;;;;;7.70;5.15;;;;;;;-7.52;100.00;101353.25;5055551;28;20037;-77
2024/01/19 03:24:54;;;;;;;16.83;9.02;;;;;;;-7.69;100.00;101352.94;5022811;28;20068;-76
2024/01/19 03:27:19;;;;;;;13.10;6.97;;;;;;;-7.66;100.00;101353.69;5055470;28;20464;-76
2024/01/19 03:29:47;;;;;;;9.40;6.95;;;;;;;-7.63;100.00;101350.97;5022641;28;20128;-76
2024/01/19 03:32:13;;;;;;;10.88;6.35;;;;;;;-7.61;100.00;101343.09;5022365;28;20207;-77
2024/01/19 03:34:40;;;;;;;16.92;7.72;;;;;;;-7.63;100.00;101340.53;5006157;28;20044;-77
2024/01/19 03:37:06;;;;;;;10.18;6.63;;;;;;;-7.61;100.00;101333.50;5022465;28;20059;-76
2024/01/19 03:39:32;;;;;;;16.80;8.30;;;;;;;-7.50;100.00;101338.41;5038466;28;20467;-76
2024/01/19 03:41:59;;;;;;;16.55;9.43;;;;;;;-7.45;100.00;101323.44;5022206;28;20033;-77
2024/01/19 03:44:24;;;;;;;15.68;10.38;;;;;;;-7.33;100.00;101328.31;5054824;28;20029;-77
2024/01/19 03:46:51;;;;;;;12.52;7.78;;;;;;;-7.38;100.00;101326.72;5022306;28;20043;-77
2024/01/19 03:49:17;;;;;;;15.65;7.85;;;;;;;-7.56;100.00;101329.00;5038724;28;20517;-77
2024/01/19 03:51:58;;;;;;;9.98;7.30;;;;;;;-7.73;100.00;101323.41;5038400;28;20113;-77
2024/01/19 03:54:25;;;;;;;10.13;5.47;;;;;;;-7.84;100.00;101317.66;5055077;28;20025;-77
2024/01/19 03:56:50;;;;;;;6.90;4.70;;;;;;;-7.99;100.00;101321.56;5022106;28;20336;-76
2024/01/19 03:59:16;;;;;;;11.13;6.78;;;;;;;-8.11;100.00;101317.56;5054666;28;20376;-76
2024/01/19 04:01:42;;;;;;;10.48;5.93;;;;;;;-8.10;100.00;101315.81;5038388;28;20494;-78
2024/01/19 04:04:07;;;;;;;25.48;13.55;;;;;;;-8.10;100.00;101311.44;5022080;28;20422;-77
2024/01/19 04:06:33;;;;;;;17.20;9.45;;;;;;;-7.92;100.00;101314.44;5021259;28;20028;-76
2024/01/19 04:08:59;;;;;;;11.48;6.10;;;;;;;-7.83;100.00;101321.97;5021854;28;20037;-77
2024/01/19 04:11:24;;;;;;;15.13;8.20;;;;;;;-7.83;100.00;101322.84;5037886;28;20041;-76
2024/01/19 04:13:50;;;;;;;12.45;7.65;;;;;;;-7.86;100.00;101319.47;5038215;28;20036;-77
2024/01/19 04:16:16;;;;;;;11.07;6.80;;;;;;;-7.93;100.00;101310.13;5021797;28;20349;-77
2024/01/19 04:18:41;;;;;;;18.15;9.68;;;;;;;-7.93;100.00;101304.91;5037972;28;20087;-76
2024/01/19 04:21:07;;;;;;;11.68;6.85;;;;;;;-7.83;100.00;101307.19;5037937;28;20498;-77
2024/01/19 04:23:34;;;;;;;14.13;8.27;;;;;;;-7.73;100.00;101310.38;5021613;28;20036;-77
2024/01/19 04:26:00;;;;;;;12.82;6.35;;;;;;;-7.77;100.00;101311.38;5054161;28;20506;-77
2024/01/19 04:28:26;;;;;;;18.65;11.88;;;;;;;-7.87;100.00;101309.94;5021397;28;20033;-77
2024/01/19 04:30:51;;;;;;;14.90;8.50;;;;;;;-7.93;100.00;101304.91;5037778;28;20112;-77
2024/01/19 04:33:17;;;;;;;12.00;6.53;;;;;;;-7.96;100.00;101298.88;5037706;28;20073;-77
2024/01/19 04:35:43;;;;;;;11.07;6.63;;;;;;;-7.94;100.00;101300.56;5021718;28;20033;-77
2024/01/19 04:38:08;;;;;;;16.45;9.25;;;;;;;-7.96;100.00;101298.00;5021650;28;20484;-77
2024/01/19 04:40:34;;;;;;;11.65;6.82;;;;;;;-7.94;100.00;101295.34;5037799;28;20455;-77
2024/01/19 04:43:00;;;;;;;8.70;6.18;;;;;;;-7.97;100.00;101297.13;5020974;28;20029;-79
2024/01/19 04:45:25;;;;;;;16.77;9.93;;;;;;;-7.92;100.00;101296.16;5020821;28;20392;-77
2024/01/19 04:47:51;;;;;;;14.43;7.43;;;;;;;-7.89;100.00;101294.28;5037548;28;20132;-77
2024/01/19 04:50:17;;;;;;;15.00;8.95;;;;;;;-7.93;100.00;101297.91;5054908;28;20025;-76
2024/01/19 04:52:42;;;;;;;18.27;8.45;;;;;;;-7.90;100.00;101302.19;5037492;28;20029;-77
2024/01/19 04:55:08;;;;;;;15.32;7.80;;;;;;;-7.90;100.00;101310.88;5037376;28;20387;-77
2024/01/19 04:57:34;;;;;;;16.33;9.63;;;;;;;-7.99;100.00;101306.78;5037470;28;20036;-77
2024/01/19 04:59:59;;;;;;;10.02;6.78;;;;;;;-8.06;100.00;101312.22;5020644;28;20029;-77
2024/01/19 05:02:25;;;;;;;11.98;7.28;;;;;;;-8.10;100.00;101318.41;5020862;28;20141;-77
2024/01/19 05:04:51;;;;;;;13.77;8.35;;;;;;;-8.08;100.00;101312.25;5037420;28;20037;-77
2024/01/19 05:07:16;;;;;;;21.52;11.23;;;;;;;-8.03;100.00;101310.38;5020909;28;20044;-77
2024/01/19 05:09:42;;;;;;;19.65;9.63;;;;;;;-8.06;100.00;101312.22;5020646;28;20053;-77
2024/01/19 05:12:08;;;;;;;8.82;4.55;;;;;;;-8.06;100.00;101310.47;5020666;28;20029;-77
2024/01/19 05:14:33;;;;;;;16.75;8.40;;;;;;;-7.97;100.00;101319.78;5020783;28;20093;-77
2024/01/19 05:16:59;;;;;;;20.30;11.00;;;;;;;-7.85;100.00;101316.81;5020723;28;20028;-77
2024/01/19 05:19:25;;;;;;;15.88;9.00;;;;;;;-7.83;100.00;101321.97;5019614;28;20037;-79
2024/01/19 05:21:50;;;;;;;15.23;8.77;;;;;;;-7.90;100.00;101310.03;5020641;28;20037;-77
2024/01/19 05:24:17;;;;;;;10.93;6.68;;;;;;;-8.00;100.00;101310.28;5036861;28;20044;-77
2024/01/19 05:26:42;;;;;;;8.80;6.50;;;;;;;-8.03;100.00;101310.38;5020498;28;20396;-76
2024/01/19 05:29:08;;;;;;;16.10;8.98;;;;;;;-8.03;100.00;101307.75;5036341;28;20035;-77
2024/01/19 05:31:34;;;;;;;11.88;7.03;;;;;;;-8.01;100.00;101312.94;5020178;28;20139;-77
2024/01/19 05:33:59;;;;;;;13.18;7.85;;;;;;;-8.07;100.00;101303.53;5052529;28;20369;-77
2024/01/19 05:36:25;;;;;;;21.35;10.85;;;;;;;-8.09;100.00;101309.69;5020133;28;20029;-77
2024/01/19 05:38:51;;;;;;;15.60;7.65;;;;;;;-8.08;100.00;101312.25;5020034;28;20041;-76
2024/01/19 05:41:21;;;;;;;11.73;6.60;;;;;;;-8.12;100.00;101309.75;5036466;28;20025;-77
2024/01/19 05:43:47;;;;;;;8.98;6.13;;;;;;;-8.14;100.00;101314.19;5020075;28;20529;-76
2024/01/19 05:46:13;;;;;;;10.18;7.00;;;;;;;-8.23;100.00;101318.78;5036166;28;20028;-76
2024/01/19 05:48:39;;;;;;;16.00;9.15;;;;;;;-8.18;100.00;101311.69;5052749;28;20033;-76
2024/01/19 05:51:14;;;;;;;14.88;8.20;;;;;;;-7.99;100.00;101309.41;5020032;28;20087;-76
2024/01/19 05:53:39;;;;;;;14.90;6.28;;;;;;;-7.90;100.00;101316.09;5036026;28;20029;-77
2024/01/19 05:56:05;;;;;;;17.85;8.77;;;;;;;-7.82;100.00;101318.47;5019805;28;20032;-76
2024/01/19 05:58:31;;;;;;;17.15;9.02;;;;;;;-7.82;100.00;101321.94;5036103;28;20040;-77
2024/01/19 06:00:57;;;;;;;16.48;10.15;;;;;;;-7.99;100.00;101311.13;5019727;28;20029;-77
2024/01/19 06:03:23;;;;;;;12.02;7.68;;;;;;;-8.08;100.00;101314.84;5019731;28;20124;-77
2024/01/19 06:05:48;;;;;;;16.88;9.45;;;;;;;-8.09;100.00;101320.13;5019841;28;20033;-76
2024/01/19 06:08:14;;;;;;;20.40;9.85;;;;;;;-7.97;100.00;101314.56;5019712;28;20075;-77
2024/01/19 06:10:40;;;;;;;10.75;5.97;;;;;;;-7.97;100.00;101315.41;5019594;28;20438;-76
2024/01/19 06:13:06;;;;;;;4.05;3.40;;;;;;;-8.00;100.00;101312.88;5019565;28;20033;-76
2024/01/19 06:15:31;;;;;;;17.55;9.40;;;;;;;-7.93;100.00;101315.34;5019415;28;20184;-77
2024/01/19 06:17:57;;;;;;;9.88;5.88;;;;;;;-8.00;100.00;101325.09;5036128;28;20052;-77
2024/01/19 06:20:23;;;;;;;6.13;4.75;;;;;;;-8.03;100.00;101323.41;5035677;28;20041;-77
2024/01/19 06:22:48;;;;;;;11.88;5.95;;;;;;;-8.05;100.00;101325.19;5019359;28;20033;-76
2024/01/19 06:25:15;;;;;;;11.02;6.88;;;;;;;-8.04;100.00;101323.47;5052052;28;20503;-76
2024/01/19 06:27:41;;;;;;;8.38;4.93;;;;;;;-8.04;100.00;101328.69;5019381;28;20079;-77
2024/01/19 06:30:07;;;;;;;10.80;6.85;;;;;;;-8.07;100.00;101321.81;5051825;28;20047;-76
2024/01/19 06:32:32;;;;;;;8.68;5.25;;;;;;;-8.08;100.00;101319.22;5019477;28;20056;-77
2024/01/19 06:34:58;;;;;;;10.05;6.20;;;;;;;-8.14;100.00;101316.81;5019333;28;20072;-77
2024/01/19 06:37:24;;;;;;;15.02;9.98;;;;;;;-8.20;100.00;101310.84;5019053;28;20040;-76
2024/01/19 06:39:49;;;;;;;10.55;5.93;;;;;;;-8.08;100.00;101317.47;5019316;28;20048;-77
2024/01/19 06:42:15;;;;;;;14.23;8.30;;;;;;;-8.01;100.00;101313.78;5020084;28;20471;-76
2024/01/19 06:44:44;;;;;;;6.03;5.05;;;;;;;-7.93;100.00;101304.91;5035861;28;20384;-76
2024/01/19 06:47:10;;;;;;;14.23;7.68;;;;;;;-8.00;100.00;101297.22;5019200;28;20033;-77
2024/01/19 06:49:38;;;;;;;8.05;3.58;;;;;;;-7.98;100.00;101298.03;5035794;28;20424;-77
2024/01/19 06:52:07;;;;;;;12.75;6.95;;;;;;;-7.93;100.00;101295.31;5019069;28;20037;-77
2024/01/19 06:54:33;;;;;;;15.02;7.00;;;;;;;-7.76;100.00;101303.47;5051847;28;20059;-77
2024/01/19 06:56:59;;;;;;;11.73;5.88;;;;;;;-7.73;100.00;101302.53;5019060;28;20033;-76
2024/01/19 06:59:27;;;;;;;8.93;6.50;;;;;;;-7.76;100.00;101298.25;5035278;28;20036;-76
2024/01/19 07:01:52;;;;;;;6.93;4.78;;;;;;;-7.91;100.00;101303.94;5035184;28;20033;-77
2024/01/19 07:04:18;;;;;;;9.40;3.58;;;;;;;-8.09;100.00;101297.50;5035344;28;20110;-76
2024/01/19 07:06:44;;;;;;;5.90;2.78;;;;;;;-8.20;100.00;101294.34;5018977;28;20033;-76
2024/01/19 07:09:17;;;;;;;8.55;4.68;;;;;;;-8.29;100.00;101297.19;5035945;28;20067;-76
2024/01/19 07:11:42;;;;;;;6.75;3.30;;;;;;;-8.30;100.00;101298.13;5035561;28;20488;-77
2024/01/19 07:14:09;;;;;;;3.45;2.13;;;;;;;-8.36;100.00;101301.75;5019072;28;20061;-77
2024/01/19 07:16:43;;;;;;;12.80;6.40;;;;;;;-8.12;100.00;101302.81;5035520;28;20033;-77
2024/01/19 07:19:10;;;;;;;11.50;5.72;;;;;;;-8.04;100.00;101290.41;5051164;28;20063;-77
2024/01/19 07:21:45;;;;;;;7.43;4.55;;;;;;;-8.02;100.00;101291.22;5051563;28;20436;-77
2024/01/19 07:24:11;;;;;;;8.32;5.68;;;;;;;-8.07;100.00;101293.09;5018997;28;20028;-77
2024/01/19 07:26:38;;;;;;;14.35;6.43;;;;;;;-8.03;100.00;101292.09;5051507;28;20516;-77
2024/01/19 07:29:06;;;;;;;9.05;5.10;;;;;;;-7.96;100.00;101293.63;5035383;28;20447;-77
2024/01/19 07:31:33;;;;;;;12.35;5.93;;;;;;;-7.90;100.00;101294.38;5019008;28;20391;-77
2024/01/19 07:34:01;;;;;;;6.00;3.97;;;;;;;-7.87;100.00;101299.50;5051557;28;20059;-76
2024/01/19 07:36:27;;;;;;;11.32;6.78;;;;;;;-7.87;100.00;101296.88;5018534;28;20037;-77
2024/01/19 07:38:53;;;;;;;12.00;7.28;;;;;;;-7.82;100.00;101289.75;5035812;28;20040;-77
2024/01/19 07:41:18;;;;;;;6.18;4.25;;;;;;;-7.84;100.00;101295.03;5035605;28;20491;-77
2024/01/19 07:43:44;;;;;;;6.53;3.45;;;;;;;-7.91;100.00;101295.25;5022322;28;20537;-77
2024/01/19 07:46:12;;;;;;;7.38;4.85;;;;;;;-8.08;100.00;101286.16;5022311;28;20063;-77
2024/01/19 07:48:38;;;;;;;7.60;4.03;;;;;;;-8.18;100.00;101292.53;5038714;28;20137;-76
2024/01/19 07:51:04;;;;;;;3.35;3.03;;;;;;;-8.26;100.00;101290.13;5038740;28;20068;-76
2024/01/19 07:53:31;;;;;;;7.05;4.13;;;;;;;-8.33;100.00;101288.63;5022019;28;20079;-77
2024/01/19 07:55:57;;;;;;;11.35;4.93;;;;;;;-8.30;100.00;101285.06;5022509;28;20037;-77
2024/01/19 07:58:23;;;;;;;10.70;5.35;;;;;;;-8.29;100.00;101282.41;5038216;28;20392;-76
2024/01/19 08:00:49;;;;;;;13.70;6.20;;;;;;;-8.30;100.00;101272.88;5038517;28;20029;-77
2024/01/19 08:03:15;;;;;;;7.32;4.28;;;;;;;-8.29;100.00;101268.50;5021794;28;20041;-77
2024/01/19 08:05:41;;;;;;;7.10;4.85;;;;;;;-8.20;100.00;101269.13;5054619;28;20086;-76
2024/01/19 08:08:07;;;;;;;5.05;3.38;;;;;;;-8.10;100.00;101272.28;5038175;28;20041;-76
2024/01/19 08:10:35;;;;;;;6.10;3.38;;;;;;;-8.05;100.00;101283.44;5021700;28;20021;-76
2024/01/19 08:13:01;;;;;;;8.27;4.65;;;;;;;-8.14;100.00;101277.66;5038382;28;20045;-77
2024/01/19 08:15:28;;;;;;;7.07;4.78;;;;;;;-8.23;100.00;101271.81;5038046;28;20472;-77
2024/01/19 08:17:55;;;;;;;8.35;4.22;;;;;;;-8.20;100.00;101284.78;5038249;28;20070;-77
2024/01/19 08:20:21;;;;;;;6.40;3.38;;;;;;;-8.21;100.00;101279.56;5005394;28;20048;-76
2024/01/19 08:22:48;;;;;;;4.43;2.90;;;;;;;-8.27;100.00;101283.22;5021371;28;20110;-76
2024/01/19 08:25:14;;;;;;;8.77;4.05;;;;;;;-8.29;100.00;101278.94;5037519;28;20036;-77
2024/01/19 08:27:41;;;;;;;6.85;3.65;;;;;;;-8.23;100.00;101277.03;5054010;28;20029;-77
2024/01/19 08:30:08;;;;;;;7.20;4.07;;;;;;;-8.09;100.00;101283.59;5021359;28;20090;-76
2024/01/19 08:32:35;;;;;;;6.97;3.80;;;;;;;-7.92;100.00;101278.72;5021126;28;20044;-76
2024/01/19 08:35:08;;;;;;;7.00;4.10;;;;;;;-7.79;100.00;101274.00;5037806;28;20360;-76
2024/01/19 08:37:41;;;;;;;6.22;4.00;;;;;;;-7.82;100.00;101261.06;5054114;28;20032;-77
2024/01/19 08:40:09;;;;;;;5.55;3.65;;;;;;;-7.77;100.00;101274.81;5053972;28;20044;-77
2024/01/19 08:42:36;;;;;;;6.18;3.58;;;;;;;-7.73;100.00;101273.81;5021402;28;20095;-77
2024/01/19 08:45:02;;;;;;;7.10;2.22;;;;;;;-7.75;100.00;101273.03;5020937;28;20123;-77
2024/01/19 08:47:28;;;;;;;4.60;2.85;;;;;;;-7.79;100.00;101274.00;5021013;28;20107;-76
2024/01/19 08:49:54;;;;;;;9.98;3.20;;;;;;;-7.76;100.00;101269.53;5021158;28;20425;-77
2024/01/19 08:52:20;;;;;;;3.40;2.45;;;;;;;-7.71;100.00;101273.78;5037346;28;20037;-76
2024/01/19 08:54:46;;;;;;;6.85;4.00;;;;;;;-7.66;100.00;101269.28;5037599;28;20380;-77
2024/01/19 08:57:12;;;;;;;4.35;2.83;;;;;;;-7.47;100.00;101265.16;5037499;28;20040;-77
2024/01/19 08:59:37;;;;;;;6.03;4.03;;;;;;;-7.35;100.00;101258.72;5021108;28;20380;-77
2024/01/19 09:02:03;;;;;;;6.13;3.63;;;;;;;-7.26;100.00;101260.16;5021187;28;20472;-77
2024/01/19 09:04:29;;;;;;;6.18;2.88;;;;;;;-7.25;100.00;101262.75;5020811;28;20505;-77
2024/01/19 09:06:55;;;;;;;5.20;2.47;;;;;;;-7.28;100.00;101259.38;5037173;28;20119;-77
2024/01/19 09:09:24;;;;;;;5.05;3.45;;;;;;;-7.18;100.00;101260.78;5004425;28;20057;-76
2024/01/19 09:11:50;;;;;;;5.68;3.15;;;;;;;-7.09;100.00;101258.72;5036083;28;20060;-77
2024/01/19 09:14:16;;;;;;;3.28;2.63;;;;;;;-6.99;100.00;101268.84;5021594;28;20471;-77
2024/01/19 09:16:44;;;;;;;3.53;2.50;;;;;;;-6.89;100.00;101271.09;5020294;28;20483;-77
2024/01/19 09:19:15;;;;;;;5.88;2.92;;;;;;;-6.78;100.00;101264.66;5020615;28;20063;-77
2024/01/19 09:21:44;;;;;;;5.15;3.28;;;;;;;-6.66;100.00;101270.31;5037637;28;20033;-77
2024/01/19 09:24:11;;;;;;;7.00;2.65;;;;;;;-6.54;100.00;101266.41;5037392;28;20036;-77
2024/01/19 09:26:36;;;;;;;3.30;2.90;;;;;;;-6.44;100.00;101265.19;5020295;28;20048;-76
2024/01/19 09:29:02;;;;;;;8.85;3.70;;;;;;;-6.40;100.00;101258.09;5036232;28;20025;-77
2024/01/19 09:31:28;;;;;;;4.57;3.00;;;;;;;-6.26;100.00;101255.81;5036527;28;20033;-76
2024/01/19 09:33:54;;;;;;;9.52;3.42;;;;;;;-6.00;100.00;101256.63;5036647;28;20033;-76
2024/01/19 09:36:19;;;;;;;7.53;3.33;;;;;;;-5.71;100.00;101254.63;5020235;28;20032;-77
2024/01/19 09:38:45;;;;;;;5.40;3.20;;;;;;;-5.43;100.00;101252.59;5036785;28;20028;-76
2024/01/19 09:41:29;;;;;;;6.00;2.72;;;;;;;-5.50;100.00;101248.53;5036501;28;20037;-76
2024/01/19 09:43:57;;;;;;;4.80;3.30;;;;;;;-5.44;100.00;101255.28;5036386;28;20127;-76
2024/01/19 09:46:28;;;;;;;2.85;2.25;;;;;;;-4.86;100.00;101259.00;5053125;28;20112;-76
2024/01/19 09:49:12;;;;;;;6.57;3.10;;;;;;;-4.72;100.00;101250.53;5019931;28;20033;-76
2024/01/19 09:52:02;;;;;;;3.88;1.88;;;;;;;-4.55;100.00;101262.94;5052898;28;20104;-76
2024/01/19 09:54:35;;;;;;;3.17;2.35;;;;;;;-4.43;100.00;101266.78;5052754;28;20029;-76
2024/01/19 09:57:04;;;;;;;4.05;2.42;;;;;;;-4.13;100.00;101263.69;5004340;28;20036;-76
2024/01/19 09:59:31;;;;;;;3.63;2.60;;;;;;;-3.67;100.00;101269.47;5036398;28;20036;-76
2024/01/19 10:01:58;;;;;;;7.25;3.40;;;;;;;-3.42;100.00;101270.00;5052369;28;20369;-76
2024/01/19 10:04:25;;;;;;;7.28;4.35;;;;;;;-3.27;100.00;101272.84;5019287;28;20025;-77
2024/01/19 10:06:51;;;;;;;13.52;6.35;;;;;;;-2.94;100.00;101268.56;5003572;28;20471;-76
2024/01/19 10:09:23;;;;;;;5.60;3.58;;;;;;;-2.64;100.00;101267.94;5019742;28;20033;-76
2024/01/19 10:11:51;;;;;;;5.68;3.72;;;;;;;-2.52;100.00;101269.91;5035798;28;20418;-76
2024/01/19 10:14:20;;;;;;;5.30;3.22;;;;;;;-2.26;100.00;101270.34;5035814;28;20043;-76
2024/01/19 10:16:50;;;;;;;11.65;7.20;;;;;;;-1.77;100.00;101273.84;5052659;28;20383;-77
2024/01/19 10:19:16;;;;;;;10.43;5.55;;;;;;;-1.00;100.00;101273.94;5019653;28;20067;-77
2024/01/19 10:21:43;;;;;;;8.48;5.88;;;;;;;-0.26;100.00;101275.72;5019311;28;20495;-77
2024/01/19 10:24:11;;;;;;;9.25;6.00;;;;;;;0.13;100.00;101288.28;5035949;28;20108;-76
2024/01/19 10:26:37;;;;;;;11.90;5.88;;;;;;;0.14;100.00;101286.47;5036010;28;20098;-76
2024/01/19 10:29:10;;;;;;;7.65;5.28;;;;;;;0.33;100.00;101284.34;5035936;28;20116;-76
2024/01/19 10:31:37;;;;;;;9.50;5.70;;;;;;;0.57;100.00;101294.34;5053575;28;20037;-75
2024/01/19 10:34:02;;;;;;;8.98;6.15;;;;;;;0.89;100.00;101300.19;5019549;28;20144;-75
2024/01/19 10:36:41;;;;;;;10.23;6.38;;;;;;;1.14;100.00;101301.22;5035678;28;20555;-76
2024/01/19 10:39:30;;;;;;;23.75;13.50;;;;;;;1.33;100.00;101288.47;5035803;28;20057;-75
2024/01/19 10:42:37;;;;;;;16.67;7.15;;;;;;;1.76;100.00;101304.09;5036058;28;20028;-75
2024/01/19 10:45:14;;;;;;;12.93;7.68;;;;;;;1.36;100.00;101311.25;5035453;28;20496;-76
2024/01/19 10:47:48;;;;;;;10.48;6.32;;;;;;;1.03;100.00;101309.88;5052222;28;20045;-75
2024/01/19 10:50:15;;;;;;;12.75;6.40;;;;;;;1.13;100.00;101313.63;5035323;28;20032;-76
2024/01/19 10:52:42;;;;;;;11.10;7.05;;;;;;;1.41;100.00;101315.28;5035498;28;20025;-75
2024/01/19 10:55:08;;;;;;;11.93;6.72;;;;;;;1.66;100.00;101310.97;5052135;28;20071;-76
2024/01/19 10:57:34;;;;;;;5.82;3.92;;;;;;;1.31;100.00;101315.03;5035173;28;20029;-76
2024/01/19 11:00:18;;;;;;;3.63;1.92;;;;;;;1.29;100.00;101311.63;5035650;28;20044;-76
2024/01/19 11:02:47;;;;;;;3.75;1.63;;;;;;;1.21;100.00;101313.13;5019197;28;20037;-76
2024/01/19 11:05:15;;;;;;;4.80;1.60;;;;;;;1.58;100.00;101313.28;5052024;28;20133;-76
2024/01/19 11:07:41;;;;;;;3.67;1.98;;;;;;;1.91;100.00;101310.16;5035461;28;20136;-77
2024/01/19 11:10:07;;;;;;;3.45;2.25;;;;;;;2.37;100.00;101312.22;5018927;28;20033;-77